Roslindale, Massachusetts
Current Conditions -  °F | °C
As of 1:53 PM on Tuesday 21 Oct 2014 (Local Time) from KOWD Reporting Station
Overcast Overcast  
Wind Chill: 62°   Ceiling: 6000
Heat Index: 62°   Visibility: 10mi
Dew Point: 55°   Wind: 7mph
Humidity: 78%   Direction: 130°SE
Pressure: 29.91"   Gusts: NA
Location:  42.28°N, 71.13°W
Report Text: KOWD 211753Z 13006KT 10SM FEW016 OVC060 17/13 A2991 RMK AO2 RAB1658E13 SLP126 P0000 60000 T01670128 10172 20089 58015
Loading
Personal Weather Stations






























Interactive Weather Map
Tropical Storm Tracking
New forecast layout! Learn more

10-Day Weather Forecast

Advertisements
Track Severe Weather on mobile